Time;durP1;ratioP1;P1;durP2;ratioP2;P2;SDS_P1;SDS_P2;PMS_P1;PMS_P2;Temp;Humidity;BMP_temperature;BMP_pressure;BME280_temperature;BME280_humidity;BME280_pressure;Samples;Min_cycle;Max_cycle;Signal;HPM_P1;HPM_P2
2021/12/23 00:00:09;;;;;;;15.13;10.37;;;-1.70;99.90;;;;;;5012364;28;20080;-83
2021/12/23 00:02:34;;;;;;;18.27;10.57;;;-1.70;99.90;;;;;;5012565;28;20121;-83
2021/12/23 00:05:00;;;;;;;16.60;10.10;;;-1.70;99.90;;;;;;4992321;28;20072;-83
2021/12/23 00:07:25;;;;;;;18.27;10.77;;;-1.70;99.90;;;;;;5013616;28;20080;-83
2021/12/23 00:12:19;;;;;;;17.17;10.47;;;-1.60;99.90;;;;;;5002551;28;20053;-83
2021/12/23 00:14:46;;;;;;;18.20;10.70;;;-1.60;99.90;;;;;;5010463;28;20074;-83
2021/12/23 00:25:25;;;;;;;18.57;10.27;;;-1.50;99.90;;;;;;5015196;28;20049;-83
2021/12/23 00:27:50;;;;;;;16.77;10.43;;;-1.50;99.90;;;;;;5011857;28;20045;-84
2021/12/23 00:30:16;;;;;;;19.13;11.00;;;-1.60;99.90;;;;;;5010934;28;20106;-83
2021/12/23 00:32:41;;;;;;;19.40;11.00;;;-1.50;99.90;;;;;;5010685;28;20038;-83
2021/12/23 00:35:09;;;;;;;15.43;10.00;;;-1.50;99.90;;;;;;5009147;28;20468;-83
2021/12/23 00:37:42;;;;;;;15.17;10.33;;;-1.50;99.90;;;;;;4994072;28;20149;-83
2021/12/23 00:40:10;;;;;;;16.87;10.47;;;-1.50;99.90;;;;;;5019945;28;20077;-83
2021/12/23 00:42:35;;;;;;;15.80;10.53;;;-1.40;99.90;;;;;;5009970;28;20073;-83
2021/12/23 00:45:03;;;;;;;17.93;10.50;;;-1.50;99.90;;;;;;5010273;28;20034;-83
2021/12/23 00:47:29;;;;;;;20.00;11.67;;;-1.40;99.90;;;;;;5011349;28;20096;-83
2021/12/23 00:49:55;;;;;;;16.17;11.00;;;-1.40;99.90;;;;;;5008036;28;20054;-83
2021/12/23 00:52:28;;;;;;;16.00;10.90;;;-1.40;99.90;;;;;;5010011;28;20038;-83
2021/12/23 00:54:54;;;;;;;17.50;10.60;;;-1.40;99.90;;;;;;4992583;28;20046;-83
2021/12/23 00:57:26;;;;;;;17.27;11.20;;;-1.30;99.90;;;;;;5010102;28;20045;-83
2021/12/23 00:59:51;;;;;;;17.87;11.73;;;-1.30;99.90;;;;;;5008751;28;20030;-83
2021/12/23 01:02:17;;;;;;;18.57;11.23;;;-1.30;99.90;;;;;;5010828;28;20026;-83
2021/12/23 01:04:43;;;;;;;18.33;11.57;;;-1.30;99.90;;;;;;5000898;28;20447;-83
2021/12/23 01:07:09;;;;;;;17.27;11.33;;;-1.30;99.90;;;;;;5004141;28;20042;-83
2021/12/23 01:09:35;;;;;;;16.73;11.07;;;-1.30;99.90;;;;;;5009191;28;20034;-83
2021/12/23 01:12:01;;;;;;;16.27;10.33;;;-1.30;99.90;;;;;;4991881;28;20042;-83
2021/12/23 01:14:38;;;;;;;18.30;10.60;;;-1.20;99.90;;;;;;4982072;28;20121;-83
2021/12/23 01:17:23;;;;;;;17.53;11.83;;;-1.30;99.90;;;;;;5011394;28;20474;-83
2021/12/23 01:19:51;;;;;;;18.37;11.30;;;-1.20;99.90;;;;;;4994044;28;20029;-82
2021/12/23 01:22:18;;;;;;;18.93;11.20;;;-1.20;99.90;;;;;;5011636;28;20604;-82
2021/12/23 01:24:43;;;;;;;15.17;10.30;;;-1.20;99.90;;;;;;5010479;28;20037;-82
2021/12/23 01:27:09;;;;;;;16.97;10.83;;;-1.20;99.90;;;;;;5007083;28;20464;-82
2021/12/23 01:29:35;;;;;;;17.67;11.77;;;-1.20;99.90;;;;;;4993212;28;20034;-81
2021/12/23 01:32:04;;;;;;;17.00;10.67;;;-1.20;99.90;;;;;;5011290;28;20113;-82
2021/12/23 01:34:30;;;;;;;18.00;11.03;;;-1.20;99.90;;;;;;5010281;28;20034;-81
2021/12/23 01:36:56;;;;;;;20.83;13.03;;;-1.20;99.90;;;;;;4994006;28;20125;-81
2021/12/23 01:39:22;;;;;;;17.60;11.60;;;-1.20;99.90;;;;;;5010703;28;20098;-81
2021/12/23 01:41:47;;;;;;;18.43;11.80;;;-1.10;99.90;;;;;;5010217;28;20504;-80
2021/12/23 01:44:13;;;;;;;18.07;11.53;;;-1.10;99.90;;;;;;5008619;28;20038;-81
2021/12/23 01:46:39;;;;;;;17.87;12.10;;;-1.10;99.90;;;;;;5008153;28;20127;-80
2021/12/23 01:49:05;;;;;;;16.90;11.87;;;-1.10;99.90;;;;;;5010647;28;20556;-80
2021/12/23 01:51:30;;;;;;;18.80;12.43;;;-1.20;99.90;;;;;;5010332;28;20423;-81
2021/12/23 01:53:56;;;;;;;19.37;13.10;;;-1.10;99.90;;;;;;5008690;28;20041;-81
2021/12/23 01:56:24;;;;;;;20.57;12.77;;;-1.10;99.90;;;;;;4994574;28;20038;-81
2021/12/23 01:58:50;;;;;;;23.23;12.40;;;-1.20;99.90;;;;;;5008449;28;20069;-81
2021/12/23 02:01:16;;;;;;;23.27;13.50;;;-1.10;99.90;;;;;;5010360;28;20069;-81
2021/12/23 02:03:42;;;;;;;23.00;13.97;;;-1.10;99.90;;;;;;5008899;28;20038;-81
2021/12/23 02:06:08;;;;;;;21.73;13.60;;;-1.10;99.90;;;;;;5009568;28;20029;-81
2021/12/23 02:08:35;;;;;;;21.87;12.63;;;-1.10;99.90;;;;;;5008933;28;20045;-81
2021/12/23 02:11:03;;;;;;;20.63;13.23;;;-1.10;99.90;;;;;;5010273;28;20046;-81
2021/12/23 02:13:29;;;;;;;21.03;13.50;;;-1.10;99.90;;;;;;5007605;28;20108;-81
2021/12/23 02:15:54;;;;;;;18.70;11.87;;;-1.10;99.90;;;;;;5007533;28;20503;-81
2021/12/23 02:18:21;;;;;;;19.10;12.73;;;-1.10;99.90;;;;;;5006582;28;20531;-81
2021/12/23 02:20:47;;;;;;;23.17;14.17;;;-1.10;99.90;;;;;;5009919;28;20060;-81
2021/12/23 02:23:12;;;;;;;20.17;13.10;;;-1.10;99.90;;;;;;5010040;28;20038;-81
2021/12/23 02:25:38;;;;;;;21.43;13.50;;;-1.10;99.90;;;;;;5007578;28;20065;-81
2021/12/23 02:28:07;;;;;;;22.03;14.17;;;-1.20;99.90;;;;;;5007523;28;20038;-81
2021/12/23 02:30:39;;;;;;;21.37;13.17;;;-1.10;99.90;;;;;;5009445;28;20053;-81
2021/12/23 02:33:06;;;;;;;21.13;13.17;;;-1.10;99.90;;;;;;4991383;28;20041;-81
2021/12/23 02:35:32;;;;;;;21.33;13.07;;;-1.10;99.90;;;;;;4993222;28;20407;-81
2021/12/23 02:37:57;;;;;;;20.77;13.17;;;-1.10;99.90;;;;;;5010044;28;20042;-81
2021/12/23 02:40:26;;;;;;;22.27;13.17;;;-1.10;99.90;;;;;;5008966;28;20114;-81
2021/12/23 02:42:52;;;;;;;22.37;12.93;;;-1.10;99.90;;;;;;5007791;28;20361;-82
2021/12/23 02:45:17;;;;;;;22.47;13.23;;;-1.10;99.90;;;;;;5008588;28;20064;-82
2021/12/23 02:47:43;;;;;;;21.97;13.23;;;-1.10;99.90;;;;;;4993401;28;20037;-82
2021/12/23 02:50:09;;;;;;;19.87;12.70;;;-1.10;99.90;;;;;;5005830;28;20658;-81
2021/12/23 02:52:36;;;;;;;24.27;13.87;;;-1.10;99.90;;;;;;5008425;28;20037;-81
2021/12/23 02:55:04;;;;;;;25.07;13.67;;;-1.10;99.90;;;;;;5009764;28;20069;-82
2021/12/23 02:57:33;;;;;;;22.70;13.07;;;-1.00;99.90;;;;;;4989168;28;20042;-81
2021/12/23 02:59:59;;;;;;;22.70;13.47;;;-1.00;99.90;;;;;;5007260;28;20042;-82
2021/12/23 03:02:24;;;;;;;22.33;13.80;;;-1.00;99.90;;;;;;5009105;28;20391;-82
2021/12/23 03:04:50;;;;;;;21.50;12.83;;;-1.00;99.90;;;;;;5009123;28;20048;-82
2021/12/23 03:07:16;;;;;;;21.00;13.57;;;-1.10;99.90;;;;;;5008587;28;20034;-82
2021/12/23 03:09:46;;;;;;;19.73;13.07;;;-1.00;99.90;;;;;;5008804;28;20038;-81
2021/12/23 03:12:11;;;;;;;23.50;13.90;;;-1.00;99.90;;;;;;5010667;28;20124;-82
2021/12/23 03:14:37;;;;;;;20.77;13.17;;;-1.10;99.90;;;;;;5000203;28;20125;-82
2021/12/23 03:17:03;;;;;;;23.00;14.50;;;-1.00;99.90;;;;;;5005400;28;20042;-81
2021/12/23 03:19:28;;;;;;;21.33;13.57;;;-1.00;99.90;;;;;;5005689;28;20037;-82
2021/12/23 03:21:54;;;;;;;22.03;13.47;;;-1.00;99.90;;;;;;4993052;28;20073;-82
2021/12/23 03:24:19;;;;;;;20.77;13.40;;;-1.00;99.90;;;;;;5008146;28;20439;-82
2021/12/23 03:26:46;;;;;;;25.10;14.77;;;-1.00;99.90;;;;;;5008181;28;20050;-81
2021/12/23 03:29:11;;;;;;;22.47;13.43;;;-1.00;99.90;;;;;;5005464;28;20052;-81
2021/12/23 03:31:38;;;;;;;21.87;14.20;;;-1.00;99.90;;;;;;5008537;28;20050;-81
2021/12/23 03:34:04;;;;;;;21.97;14.17;;;-1.00;99.90;;;;;;5008256;28;20065;-81
2021/12/23 03:36:30;;;;;;;22.43;14.67;;;-1.00;99.90;;;;;;5008708;28;20037;-81
2021/12/23 03:38:55;;;;;;;23.33;14.83;;;-1.00;99.90;;;;;;5002502;28;20047;-81
2021/12/23 03:41:21;;;;;;;23.33;14.77;;;-0.90;99.90;;;;;;5006507;28;20056;-81
2021/12/23 03:43:46;;;;;;;26.57;15.23;;;-0.90;99.90;;;;;;5005902;28;20046;-81
2021/12/23 03:46:12;;;;;;;20.83;13.70;;;-0.90;99.90;;;;;;5006225;28;20121;-81
2021/12/23 03:48:37;;;;;;;23.50;14.73;;;-0.90;99.90;;;;;;5003268;28;20081;-81
2021/12/23 03:51:03;;;;;;;24.60;15.20;;;-0.90;99.90;;;;;;5004120;28;20046;-81
2021/12/23 03:53:29;;;;;;;24.77;14.70;;;-0.90;99.90;;;;;;5008538;28;20046;-81
2021/12/23 03:55:55;;;;;;;25.20;14.77;;;-0.90;99.90;;;;;;5006144;28;20305;-81
2021/12/23 03:58:21;;;;;;;23.93;14.33;;;-0.90;99.90;;;;;;5007733;28;20495;-82
2021/12/23 04:00:48;;;;;;;24.07;14.57;;;-0.90;99.90;;;;;;5007946;28;20046;-81
2021/12/23 04:03:14;;;;;;;27.80;15.43;;;-0.90;99.90;;;;;;5008410;28;20085;-81
2021/12/23 04:05:39;;;;;;;25.47;15.30;;;-0.80;99.90;;;;;;5006943;28;20135;-81
2021/12/23 04:08:06;;;;;;;26.07;13.97;;;-0.80;99.90;;;;;;5007483;28;20348;-81
2021/12/23 04:10:32;;;;;;;24.70;15.07;;;-0.80;99.90;;;;;;5008542;28;20049;-81
2021/12/23 04:12:57;;;;;;;25.03;15.63;;;-0.80;99.90;;;;;;5008731;28;20382;-81
2021/12/23 04:15:23;;;;;;;23.93;14.43;;;-0.80;99.90;;;;;;5004942;28;20188;-81
2021/12/23 04:17:49;;;;;;;25.93;14.50;;;-0.90;99.90;;;;;;5005750;28;20175;-81
2021/12/23 04:20:23;;;;;;;23.90;14.37;;;-0.90;99.90;;;;;;5008578;28;20053;-81
2021/12/23 04:22:53;;;;;;;23.25;14.38;;;-0.90;99.90;;;;;;5009127;28;20053;-81
2021/12/23 04:25:21;;;;;;;22.87;15.27;;;-0.80;99.90;;;;;;5009023;28;20045;-81
2021/12/23 04:27:49;;;;;;;24.60;14.87;;;-0.80;99.90;;;;;;5008285;28;20065;-81
2021/12/23 04:30:15;;;;;;;24.47;14.37;;;-0.80;99.90;;;;;;5007784;28;20113;-81
2021/12/23 04:32:41;;;;;;;21.93;13.63;;;-0.80;99.90;;;;;;5007188;28;20129;-81
2021/12/23 04:35:08;;;;;;;27.70;15.17;;;-0.80;99.90;;;;;;5007784;28;20065;-81
2021/12/23 04:37:34;;;;;;;25.23;14.80;;;-0.80;99.90;;;;;;5007977;28;20041;-81
2021/12/23 04:40:00;;;;;;;25.93;15.17;;;-0.80;99.90;;;;;;5011363;28;20121;-80
2021/12/23 04:42:25;;;;;;;26.10;14.57;;;-0.80;99.90;;;;;;5011890;28;20046;-81
2021/12/23 04:44:52;;;;;;;29.27;16.30;;;-0.80;99.90;;;;;;5011740;28;20120;-81
2021/12/23 04:47:18;;;;;;;23.40;14.40;;;-0.80;99.90;;;;;;5012073;28;20077;-81
2021/12/23 04:49:43;;;;;;;24.77;13.83;;;-0.80;99.90;;;;;;5010971;28;20080;-81
2021/12/23 04:52:09;;;;;;;24.93;15.27;;;-0.80;99.90;;;;;;5011244;28;20129;-81
2021/12/23 04:54:34;;;;;;;25.17;14.83;;;-0.70;99.90;;;;;;5008546;28;20523;-81
2021/12/23 04:57:00;;;;;;;23.27;14.60;;;-0.70;99.90;;;;;;5010985;28;20041;-81
2021/12/23 04:59:25;;;;;;;22.30;13.97;;;-0.70;99.90;;;;;;5011473;28;20446;-81
2021/12/23 05:01:51;;;;;;;23.70;14.60;;;-0.70;99.90;;;;;;5007545;28;20034;-80
2021/12/23 05:04:17;;;;;;;27.20;15.83;;;-0.70;99.90;;;;;;5010430;28;20038;-81
2021/12/23 05:06:43;;;;;;;23.93;14.40;;;-0.50;99.90;;;;;;5011374;28;20065;-81
2021/12/23 05:09:08;;;;;;;24.90;14.70;;;-0.60;99.90;;;;;;5010847;28;20517;-81
2021/12/23 05:11:34;;;;;;;23.57;15.10;;;-0.60;99.90;;;;;;5010394;28;20037;-80
2021/12/23 05:14:00;;;;;;;24.40;13.83;;;-0.60;99.90;;;;;;4993448;28;20045;-80
2021/12/23 05:16:25;;;;;;;24.93;14.17;;;-0.60;99.90;;;;;;4993569;28;20046;-80
2021/12/23 05:18:51;;;;;;;23.30;14.67;;;-0.60;99.90;;;;;;5010531;28;20038;-80
2021/12/23 05:21:16;;;;;;;25.07;14.70;;;-0.60;99.90;;;;;;5008872;28;20034;-80
2021/12/23 05:23:42;;;;;;;25.57;15.00;;;-0.60;99.90;;;;;;5007324;28;20034;-80
2021/12/23 05:26:08;;;;;;;22.53;14.30;;;-0.60;99.90;;;;;;5010722;28;20060;-80
2021/12/23 05:28:35;;;;;;;24.80;14.77;;;-0.60;99.90;;;;;;5006247;28;20042;-80
2021/12/23 05:31:01;;;;;;;24.97;14.60;;;-0.60;99.90;;;;;;5008196;28;20125;-79
2021/12/23 05:33:27;;;;;;;26.77;15.17;;;-0.60;99.90;;;;;;5010387;28;20435;-79
2021/12/23 05:35:53;;;;;;;25.33;14.93;;;-0.60;99.90;;;;;;5007612;28;20464;-79
2021/12/23 05:38:18;;;;;;;23.47;14.67;;;-0.60;99.90;;;;;;5008540;28;20053;-79
2021/12/23 05:40:44;;;;;;;24.23;14.73;;;-0.60;99.90;;;;;;5004927;28;20038;-79
2021/12/23 05:43:09;;;;;;;25.57;15.57;;;-0.50;99.90;;;;;;5009782;28;20499;-79
2021/12/23 05:45:35;;;;;;;21.80;14.10;;;-0.50;99.90;;;;;;5010506;28;20471;-79
2021/12/23 05:48:01;;;;;;;25.70;14.93;;;-0.50;99.90;;;;;;5008028;28;20458;-79
2021/12/23 05:50:26;;;;;;;25.10;15.27;;;-0.50;99.90;;;;;;5008738;28;20450;-79
2021/12/23 05:52:52;;;;;;;24.50;15.50;;;-0.50;99.90;;;;;;5007417;28;20500;-79
2021/12/23 05:55:19;;;;;;;28.03;15.73;;;-0.50;99.90;;;;;;4993542;28;20033;-79
2021/12/23 05:57:45;;;;;;;24.70;16.03;;;-0.50;99.90;;;;;;5006068;28;20065;-79
2021/12/23 06:00:17;;;;;;;26.10;15.53;;;-0.50;99.90;;;;;;5008732;28;20084;-78
2021/12/23 06:02:42;;;;;;;27.07;15.90;;;-0.50;99.90;;;;;;5009004;28;20118;-79
2021/12/23 06:05:08;;;;;;;25.20;14.93;;;-0.50;99.90;;;;;;5005039;28;20026;-78
2021/12/23 06:07:34;;;;;;;25.47;15.53;;;-0.50;99.90;;;;;;5009365;28;20411;-79
2021/12/23 06:10:00;;;;;;;26.13;15.00;;;-0.50;99.90;;;;;;5007846;28;20042;-79
2021/12/23 06:12:26;;;;;;;22.43;14.30;;;-0.50;99.90;;;;;;5009953;28;20521;-79
2021/12/23 06:14:52;;;;;;;26.17;15.63;;;-0.50;99.90;;;;;;5006708;28;20077;-79
2021/12/23 06:17:18;;;;;;;25.20;16.07;;;-0.40;99.90;;;;;;5010086;28;20069;-80
2021/12/23 06:19:43;;;;;;;24.03;15.60;;;-0.40;99.90;;;;;;5009509;28;20117;-79
2021/12/23 06:22:09;;;;;;;28.20;16.53;;;-0.50;99.90;;;;;;5009685;28;20114;-80
2021/12/23 06:24:35;;;;;;;26.97;16.70;;;-0.40;99.90;;;;;;5008325;28;20041;-79
2021/12/23 06:27:00;;;;;;;28.07;16.70;;;-0.40;99.90;;;;;;5009166;28;20034;-79
2021/12/23 06:29:26;;;;;;;26.07;15.83;;;-0.40;99.90;;;;;;5009423;28;20050;-79
2021/12/23 06:31:51;;;;;;;27.00;16.33;;;-0.50;99.90;;;;;;5009002;28;20463;-80
2021/12/23 06:34:17;;;;;;;27.47;16.80;;;-0.40;99.90;;;;;;5005065;28;20030;-79
2021/12/23 06:36:43;;;;;;;24.93;15.80;;;-0.40;99.90;;;;;;5008294;28;20057;-80
2021/12/23 06:39:09;;;;;;;26.60;15.83;;;-0.50;99.90;;;;;;5007729;28;20088;-79
2021/12/23 06:41:35;;;;;;;26.57;16.70;;;-0.40;99.90;;;;;;5007998;28;20042;-80
2021/12/23 06:44:00;;;;;;;26.30;15.97;;;-0.40;99.90;;;;;;5006847;28;20034;-80
2021/12/23 06:46:26;;;;;;;24.87;16.17;;;-0.50;99.90;;;;;;5008489;28;20389;-80
2021/12/23 06:48:51;;;;;;;29.67;17.13;;;-0.40;99.90;;;;;;5007336;28;20049;-80
2021/12/23 06:51:17;;;;;;;31.33;17.97;;;-0.40;99.90;;;;;;5009305;28;20041;-81
2021/12/23 06:53:42;;;;;;;29.17;17.90;;;-0.40;99.90;;;;;;5009794;28;20431;-81
2021/12/23 06:56:10;;;;;;;26.80;17.43;;;-0.30;99.90;;;;;;5006432;28;20049;-81
2021/12/23 06:58:38;;;;;;;34.10;16.87;;;-0.30;99.90;;;;;;4985903;28;20379;-81
2021/12/23 07:01:04;;;;;;;26.73;16.57;;;-0.30;99.90;;;;;;5006794;28;20034;-80
2021/12/23 07:03:46;;;;;;;26.40;17.50;;;-0.30;99.90;;;;;;5007450;28;20192;-82
2021/12/23 07:06:17;;;;;;;29.50;19.00;;;-0.30;99.90;;;;;;5007453;28;20044;-81
2021/12/23 07:08:43;;;;;;;28.97;17.30;;;-0.30;99.90;;;;;;5008322;28;20052;-82
2021/12/23 07:11:10;;;;;;;31.60;18.13;;;-0.30;99.90;;;;;;5005186;28;20120;-81
2021/12/23 07:13:35;;;;;;;31.90;18.87;;;-0.30;99.90;;;;;;5007902;28;20041;-81
2021/12/23 07:16:01;;;;;;;29.73;19.00;;;-0.30;99.90;;;;;;5011396;28;20077;-81
2021/12/23 07:18:27;;;;;;;30.23;18.27;;;-0.30;99.90;;;;;;5010655;28;20050;-81
2021/12/23 07:20:53;;;;;;;31.27;19.20;;;-0.30;99.90;;;;;;5011531;28;20521;-81
2021/12/23 07:23:19;;;;;;;28.40;17.80;;;-0.30;99.90;;;;;;5010084;28;20415;-81
2021/12/23 07:25:44;;;;;;;30.67;19.37;;;-0.30;99.90;;;;;;5008571;28;20038;-81
2021/12/23 07:28:10;;;;;;;30.83;19.17;;;-0.30;99.90;;;;;;5011374;28;20132;-81
2021/12/23 07:30:35;;;;;;;30.23;18.47;;;-0.30;99.90;;;;;;5001333;28;20555;-81
2021/12/23 07:33:01;;;;;;;30.77;18.80;;;-0.30;99.90;;;;;;5008372;28;20491;-82
2021/12/23 07:35:27;;;;;;;29.57;18.50;;;-0.30;99.90;;;;;;5006768;28;20042;-78
2021/12/23 07:37:52;;;;;;;31.73;19.10;;;-0.30;99.90;;;;;;5005464;28;20039;-78
2021/12/23 07:40:18;;;;;;;28.47;17.63;;;-0.30;99.90;;;;;;5006210;28;20038;-81
2021/12/23 07:42:52;;;;;;;29.67;17.47;;;-0.30;99.90;;;;;;4993720;28;20037;-81
2021/12/23 07:45:18;;;;;;;30.93;17.93;;;-0.30;99.90;;;;;;5007883;28;20084;-81
2021/12/23 07:47:44;;;;;;;30.73;17.83;;;-0.30;99.90;;;;;;5006539;28;20030;-81
2021/12/23 07:50:09;;;;;;;29.07;17.80;;;-0.30;99.90;;;;;;5007893;28;20533;-81
2021/12/23 07:52:36;;;;;;;32.87;18.10;;;-0.30;99.90;;;;;;5008303;28;20038;-81
2021/12/23 07:55:01;;;;;;;31.00;18.70;;;-0.40;99.90;;;;;;5006770;28;20384;-81
2021/12/23 07:57:27;;;;;;;33.70;19.77;;;-0.40;99.90;;;;;;5002625;28;20049;-80
2021/12/23 07:59:52;;;;;;;29.87;18.77;;;-0.40;99.90;;;;;;5006176;28;20473;-81
2021/12/23 08:02:18;;;;;;;31.53;19.20;;;-0.30;99.90;;;;;;5010390;28;20497;-81
2021/12/23 08:04:43;;;;;;;27.67;17.60;;;-0.40;99.90;;;;;;5009068;28;20037;-80
2021/12/23 08:07:09;;;;;;;32.77;19.30;;;-0.40;99.90;;;;;;5006079;28;20038;-80
2021/12/23 08:09:34;;;;;;;29.53;18.70;;;-0.40;99.90;;;;;;5007814;28;20109;-81
2021/12/23 08:12:00;;;;;;;31.77;20.40;;;-0.40;99.90;;;;;;5006904;28;20038;-80
2021/12/23 08:14:26;;;;;;;28.30;17.63;;;-0.40;99.90;;;;;;5010382;28;20442;-81
2021/12/23 08:16:52;;;;;;;33.87;19.60;;;-0.40;99.90;;;;;;5013733;28;20037;-80
2021/12/23 08:19:17;;;;;;;29.53;18.30;;;-0.40;99.90;;;;;;5013606;28;20385;-80
2021/12/23 08:21:43;;;;;;;30.97;18.20;;;-0.40;99.90;;;;;;5010513;28;20038;-81
2021/12/23 08:24:08;;;;;;;31.40;19.00;;;-0.20;99.90;;;;;;5025912;28;20045;-80
2021/12/23 08:26:40;;;;;;;30.47;18.37;;;-0.40;99.90;;;;;;5012849;28;20049;-81
2021/12/23 08:29:07;;;;;;;31.83;18.83;;;-0.40;99.90;;;;;;5012926;28;20042;-80
2021/12/23 08:31:33;;;;;;;30.83;18.33;;;-0.40;99.90;;;;;;5007923;28;20041;-81
2021/12/23 08:33:59;;;;;;;32.10;19.50;;;-0.40;99.90;;;;;;5010092;28;20038;-81
2021/12/23 08:36:24;;;;;;;31.70;20.03;;;-0.40;99.90;;;;;;5012641;28;20497;-81
2021/12/23 08:38:50;;;;;;;33.30;20.10;;;-0.40;99.90;;;;;;5010468;28;20128;-81
2021/12/23 08:41:16;;;;;;;34.63;19.10;;;-0.40;99.90;;;;;;5007419;28;20025;-81
2021/12/23 08:43:44;;;;;;;30.57;18.20;;;-0.40;99.90;;;;;;5006539;28;20052;-81
2021/12/23 08:46:10;;;;;;;32.37;19.80;;;-0.40;99.90;;;;;;5010138;28;20519;-80
2021/12/23 08:48:36;;;;;;;33.00;20.43;;;-0.40;99.90;;;;;;5010761;28;20125;-80
2021/12/23 08:51:01;;;;;;;33.37;20.30;;;-0.40;99.90;;;;;;5005626;28;20121;-79
2021/12/23 08:53:27;;;;;;;32.70;20.27;;;-0.40;99.90;;;;;;4995312;28;20758;-80
2021/12/23 08:55:53;;;;;;;33.77;20.17;;;-0.40;99.90;;;;;;5010976;28;20751;-80
2021/12/23 08:58:18;;;;;;;32.60;20.07;;;-0.40;99.90;;;;;;5009877;28;20554;-80
2021/12/23 09:00:44;;;;;;;34.00;19.70;;;-0.40;99.90;;;;;;5011217;28;20030;-80
2021/12/23 09:03:10;;;;;;;34.13;20.87;;;-0.40;99.90;;;;;;5013245;28;20038;-80
2021/12/23 09:05:37;;;;;;;31.00;19.33;;;-0.40;99.90;;;;;;5013861;28;20095;-79
2021/12/23 09:08:05;;;;;;;37.13;21.30;;;-0.40;99.90;;;;;;5005021;28;20046;-80
2021/12/23 09:10:31;;;;;;;36.30;21.37;;;-0.40;99.90;;;;;;5006992;28;20081;-80
2021/12/23 09:12:56;;;;;;;37.20;22.13;;;-0.40;99.90;;;;;;5004294;28;20046;-80
2021/12/23 09:15:22;;;;;;;37.73;21.00;;;-0.40;99.90;;;;;;5013869;28;20109;-79
2021/12/23 09:17:48;;;;;;;32.20;20.03;;;-0.40;99.90;;;;;;5014285;28;20042;-80
2021/12/23 09:20:16;;;;;;;36.90;21.40;;;-0.30;99.90;;;;;;5014001;28;20045;-80
2021/12/23 09:22:42;;;;;;;38.20;21.27;;;-0.40;99.90;;;;;;5000161;28;20117;-80
2021/12/23 09:25:18;;;;;;;39.10;22.27;;;-0.40;99.90;;;;;;4998662;28;20088;-80
2021/12/23 09:33:06;;;;;;;42.83;23.03;;;-0.40;99.90;;;;;;5010246;28;20534;-80
2021/12/23 09:35:32;;;;;;;41.83;22.67;;;-0.30;99.90;;;;;;5004810;28;20041;-81
2021/12/23 09:38:00;;;;;;;36.87;22.33;;;-0.30;99.90;;;;;;5010331;28;20448;-80
2021/12/23 09:40:29;;;;;;;40.97;23.63;;;-0.30;99.90;;;;;;5009961;28;20042;-80
2021/12/23 09:42:55;;;;;;;42.97;24.67;;;-0.30;99.90;;;;;;4990776;28;20069;-79
2021/12/23 09:45:20;;;;;;;39.73;24.60;;;-0.30;99.90;;;;;;5006372;28;20050;-78
2021/12/23 09:47:48;;;;;;;43.63;24.30;;;-0.30;99.90;;;;;;5011066;28;20061;-78
2021/12/23 09:50:17;;;;;;;44.97;25.60;;;-0.30;99.90;;;;;;5011267;28;20046;-79
2021/12/23 09:52:48;;;;;;;46.60;25.33;;;-0.30;99.90;;;;;;5011666;28;20038;-79
2021/12/23 09:55:19;;;;;;;45.33;25.33;;;-0.30;99.90;;;;;;5010381;28;20130;-78
2021/12/23 09:57:47;;;;;;;47.37;25.70;;;-0.30;99.90;;;;;;5011835;28;20049;-77
2021/12/23 10:00:16;;;;;;;48.60;26.60;;;-0.30;99.90;;;;;;5012000;28;20168;-77
2021/12/23 10:02:42;;;;;;;49.53;26.13;;;-0.30;99.90;;;;;;5011965;28;20088;-77
2021/12/23 10:05:14;;;;;;;44.13;25.20;;;-0.30;99.90;;;;;;5011900;28;20041;-77
2021/12/23 10:07:42;;;;;;;46.50;25.33;;;-0.30;99.90;;;;;;5011930;28;20042;-77
2021/12/23 10:10:29;;;;;;;51.07;26.50;;;-0.30;99.90;;;;;;5012221;28;20054;-77
2021/12/23 10:37:21;;;;;;;50.17;27.97;;;-0.20;99.90;;;;;;5011697;28;20050;-77
2021/12/23 10:40:11;;;;;;;56.30;28.80;;;-0.20;99.90;;;;;;5011300;28;20053;-77
2021/12/23 10:42:37;;;;;;;51.00;27.47;;;-0.20;99.90;;;;;;5011227;28;20041;-77
2021/12/23 10:45:08;;;;;;;53.47;28.77;;;-0.20;99.90;;;;;;5011111;28;20519;-77
2021/12/23 10:47:55;;;;;;;59.20;28.93;;;-0.20;99.90;;;;;;5011183;28;20519;-77
2021/12/23 10:50:42;;;;;;;63.63;28.97;;;-0.20;99.90;;;;;;5011429;28;20471;-77
2021/12/23 10:53:26;;;;;;;55.87;29.23;;;-0.20;99.90;;;;;;5011335;28;20446;-78
2021/12/23 10:59:15;;;;;;;101.70;34.27;;;-0.20;99.90;;;;;;4995069;28;20050;-78
2021/12/23 11:02:37;;;;;;;58.90;29.80;;;-0.20;99.90;;;;;;5010862;28;20124;-78
2021/12/23 11:05:28;;;;;;;59.70;29.57;;;-0.20;99.90;;;;;;5010741;28;20053;-78
2021/12/23 11:08:04;;;;;;;61.73;30.17;;;-0.20;99.90;;;;;;5011417;28;20088;-78
2021/12/23 11:10:57;;;;;;;57.70;29.60;;;-0.10;99.90;;;;;;5010779;28;20042;-78
2021/12/23 11:35:51;;;;;;;;;;;0.00;99.90;;;;;;5010778;28;20067;-79
2021/12/23 11:46:13;;;;;;;58.57;29.30;;;0.00;99.90;;;;;;5010001;28;20133;-79
2021/12/23 11:48:42;;;;;;;58.10;30.30;;;0.00;99.90;;;;;;4994122;28;20076;-79
2021/12/23 11:51:15;;;;;;;63.53;30.40;;;0.00;99.90;;;;;;5010298;28;20065;-79
2021/12/23 11:53:42;;;;;;;61.67;30.00;;;0.00;99.90;;;;;;5001856;28;20046;-80
2021/12/23 11:56:10;;;;;;;57.00;28.27;;;0.00;99.90;;;;;;5006894;28;20037;-80
2021/12/23 11:58:42;;;;;;;60.27;29.90;;;0.00;99.90;;;;;;5010383;28;20112;-80
2021/12/23 12:01:17;;;;;;;60.80;28.83;;;0.00;99.90;;;;;;5010041;28;20038;-80
2021/12/23 12:03:53;;;;;;;62.23;29.27;;;0.00;99.90;;;;;;5010775;28;20049;-80
2021/12/23 12:06:23;;;;;;;59.53;30.57;;;0.10;99.90;;;;;;5002373;28;20089;-80
2021/12/23 12:08:54;;;;;;;58.97;28.97;;;0.10;99.90;;;;;;5010215;28;20042;-80
2021/12/23 12:11:22;;;;;;;60.23;30.73;;;0.10;99.90;;;;;;5010987;28;20559;-80
2021/12/23 12:13:49;;;;;;;62.27;31.67;;;0.10;99.90;;;;;;4998185;28;20522;-80
2021/12/23 12:16:35;;;;;;;62.97;31.10;;;0.10;99.90;;;;;;4990992;28;20065;-80
2021/12/23 12:19:03;;;;;;;55.87;27.67;;;0.10;99.90;;;;;;4994142;28;20561;-81
2021/12/23 12:21:34;;;;;;;60.43;29.63;;;0.10;99.90;;;;;;5009656;28;20045;-80
2021/12/23 12:24:26;;;;;;;63.80;30.27;;;0.20;99.90;;;;;;4993556;28;20037;-80
2021/12/23 12:27:01;;;;;;;62.10;30.97;;;0.20;99.90;;;;;;5006059;28;20046;-81
2021/12/23 12:29:36;;;;;;;63.93;31.07;;;0.20;99.90;;;;;;5000347;28;20507;-80
2021/12/23 12:32:02;;;;;;;62.27;30.20;;;0.20;99.90;;;;;;4990938;28;20030;-81
2021/12/23 12:34:51;;;;;;;65.53;31.10;;;0.20;99.90;;;;;;5007525;28;20056;-81
2021/12/23 12:37:17;;;;;;;59.53;29.63;;;0.20;99.90;;;;;;5005164;28;20034;-81
2021/12/23 12:39:47;;;;;;;67.80;33.03;;;0.30;99.90;;;;;;5008198;28;20470;-81
2021/12/23 12:42:32;;;;;;;68.13;32.17;;;0.20;99.90;;;;;;5008167;28;20088;-81
2021/12/23 12:45:09;;;;;;;60.90;29.80;;;0.30;99.90;;;;;;5005915;28;20177;-81
2021/12/23 12:47:39;;;;;;;64.87;32.77;;;0.30;99.90;;;;;;5006641;28;20128;-81
2021/12/23 12:50:20;;;;;;;61.83;29.73;;;0.30;99.90;;;;;;5010029;28;20041;-80
2021/12/23 12:52:50;;;;;;;63.83;32.20;;;0.30;99.90;;;;;;4990391;28;20038;-82
2021/12/23 12:55:26;;;;;;;64.20;31.20;;;0.30;99.90;;;;;;5001413;28;20042;-81
2021/12/23 12:57:54;;;;;;;62.33;31.60;;;0.30;99.90;;;;;;5006710;28;20041;-82
2021/12/23 13:00:35;;;;;;;61.70;29.97;;;0.30;99.90;;;;;;5007780;28;20127;-81
2021/12/23 13:03:19;;;;;;;65.87;31.60;;;0.30;99.90;;;;;;4994604;28;20125;-82
2021/12/23 13:05:49;;;;;;;65.10;30.08;;;0.30;99.90;;;;;;5009308;28;20419;-83
2021/12/23 13:08:15;;;;;;;61.67;30.27;;;0.30;99.90;;;;;;5005332;28;20043;-82
2021/12/23 13:10:46;;;;;;;64.93;30.30;;;0.30;99.90;;;;;;5008613;28;20507;-82
2021/12/23 13:13:33;;;;;;;66.60;31.97;;;0.30;99.90;;;;;;5012827;28;20044;-82
2021/12/23 13:16:01;;;;;;;64.20;30.20;;;0.30;99.90;;;;;;5012468;28;20046;-82
2021/12/23 13:18:27;;;;;;;71.20;31.40;;;0.30;99.90;;;;;;5014436;28;20407;-82
2021/12/23 13:20:56;;;;;;;69.57;33.00;;;0.30;99.90;;;;;;4992418;28;20038;-83
2021/12/23 13:23:48;;;;;;;61.60;29.47;;;0.30;99.90;;;;;;5013355;28;20042;-82
2021/12/23 13:26:16;;;;;;;68.23;31.70;;;0.30;99.90;;;;;;5005442;28;20049;-81
2021/12/23 13:28:55;;;;;;;68.03;31.87;;;0.30;99.90;;;;;;5002283;28;20046;-81
2021/12/23 13:31:28;;;;;;;77.63;34.20;;;0.30;99.90;;;;;;4978264;28;20106;-81
2021/12/23 13:34:07;;;;;;;72.60;31.27;;;0.30;99.90;;;;;;5004132;28;20046;-82
2021/12/23 13:36:40;;;;;;;68.97;30.70;;;0.30;99.90;;;;;;5013814;28;20639;-82
2021/12/23 13:39:15;;;;;;;65.82;31.10;;;0.30;99.90;;;;;;4997454;28;20050;-81
2021/12/23 13:41:46;;;;;;;63.60;29.60;;;0.30;99.90;;;;;;5013675;28;20069;-80
2021/12/23 13:44:15;;;;;;;63.10;31.57;;;0.30;99.90;;;;;;4997572;28;20148;-81
2021/12/23 13:46:42;;;;;;;74.63;32.70;;;0.30;99.90;;;;;;4997079;28;20050;-81